createdAt,value
2018-09-26T00:00:39.487Z,101393.00
2018-09-26T00:03:48.047Z,101396.00
2018-09-26T00:05:52.502Z,101396.00
2018-09-26T00:07:56.991Z,101397.00
2018-09-26T00:10:01.420Z,101388.00
2018-09-26T00:12:05.919Z,101384.00
2018-09-26T00:14:10.519Z,101388.00
2018-09-26T00:16:15.072Z,101387.00
2018-09-26T00:18:19.569Z,101382.00
2018-09-26T00:20:24.010Z,101392.00
2018-09-26T00:22:28.479Z,101391.00
2018-09-26T00:24:32.965Z,101394.00
2018-09-26T00:26:37.482Z,101394.00
2018-09-26T00:28:41.939Z,101388.00
2018-09-26T00:30:46.422Z,101392.00
2018-09-26T00:32:50.931Z,101396.00
2018-09-26T00:34:55.363Z,101400.00
2018-09-26T00:36:59.827Z,101408.00
2018-09-26T00:39:06.026Z,101406.00
2018-09-26T00:41:10.504Z,101402.00
2018-09-26T00:43:15.023Z,101402.00
2018-09-26T00:45:19.491Z,101398.00
2018-09-26T00:47:23.984Z,101393.00
2018-09-26T00:49:28.426Z,101386.00
2018-09-26T00:51:32.878Z,101383.00
2018-09-26T00:53:37.351Z,101376.00
2018-09-26T00:55:41.778Z,101367.00
2018-09-26T00:57:46.279Z,101355.00
2018-09-26T00:59:50.715Z,101355.00
2018-09-26T01:01:55.224Z,101341.00
2018-09-26T01:03:59.755Z,101338.00
2018-09-26T01:06:04.190Z,101346.00
2018-09-26T01:08:08.755Z,101338.00
2018-09-26T01:10:13.208Z,101338.00
2018-09-26T01:12:17.734Z,101340.00
2018-09-26T01:14:22.155Z,101340.00
2018-09-26T01:16:26.887Z,101335.00
2018-09-26T01:18:31.333Z,101327.00
2018-09-26T01:20:36.003Z,101312.00
2018-09-26T01:22:41.283Z,101316.00
2018-09-26T01:24:46.851Z,101300.00
2018-09-26T01:26:51.301Z,101300.00
2018-09-26T01:28:55.775Z,101305.00
2018-09-26T01:31:00.333Z,101303.00
2018-09-26T01:33:05.012Z,101305.00
2018-09-26T01:35:09.531Z,101293.00
2018-09-26T01:37:13.981Z,101295.00
2018-09-26T01:39:18.492Z,101300.00
2018-09-26T01:41:23.283Z,101295.00
2018-09-26T01:43:27.785Z,101290.00
2018-09-26T01:45:33.232Z,101302.00
2018-09-26T01:47:37.695Z,101298.00
2018-09-26T01:49:42.223Z,101304.00
2018-09-26T01:51:47.200Z,101301.00
2018-09-26T01:53:51.661Z,101306.00
2018-09-26T01:55:56.114Z,101301.00
2018-09-26T01:58:00.602Z,101306.00
2018-09-26T02:00:05.464Z,101298.00
2018-09-26T02:02:10.044Z,101299.00
2018-09-26T02:04:14.535Z,101291.00
2018-09-26T02:06:19.039Z,101290.00
2018-09-26T02:08:23.554Z,101287.00
2018-09-26T02:10:28.006Z,101283.00
2018-09-26T02:12:32.527Z,101282.00
2018-09-26T02:14:37.010Z,101286.00
2018-09-26T02:16:41.717Z,101277.00
2018-09-26T02:18:46.419Z,101291.00
2018-09-26T02:20:50.898Z,101275.00
2018-09-26T02:22:55.394Z,101285.00
2018-09-26T02:24:59.889Z,101291.00
2018-09-26T02:27:04.406Z,101279.00
2018-09-26T02:29:09.153Z,101279.00
2018-09-26T02:31:14.515Z,101267.00
2018-09-26T02:33:19.091Z,101271.00
2018-09-26T02:35:23.583Z,101276.00
2018-09-26T02:37:28.087Z,101268.00
2018-09-26T02:39:32.590Z,101285.00
2018-09-26T02:41:37.075Z,101291.00
2018-09-26T02:43:41.663Z,101287.00
2018-09-26T02:45:46.171Z,101294.00
2018-09-26T02:47:50.706Z,101282.00
2018-09-26T02:49:55.202Z,101292.00
2018-09-26T02:51:59.683Z,101284.00
2018-09-26T02:54:04.510Z,101276.00
2018-09-26T02:56:09.615Z,101276.00
2018-09-26T02:58:14.743Z,101276.00
2018-09-26T03:00:19.232Z,101274.00
2018-09-26T03:02:23.774Z,101270.00
2018-09-26T03:04:28.245Z,101277.00
2018-09-26T03:06:32.743Z,101275.00
2018-09-26T03:08:37.238Z,101276.00
2018-09-26T03:10:42.622Z,101269.00
2018-09-26T03:12:47.040Z,101264.00
2018-09-26T03:14:52.383Z,101270.00
2018-09-26T03:17:03.542Z,101262.00
2018-09-26T03:19:08.491Z,101259.00
2018-09-26T03:21:13.335Z,101267.00
2018-09-26T03:23:18.022Z,101283.00
2018-09-26T03:25:22.650Z,101278.00
2018-09-26T03:27:27.164Z,101266.00
2018-09-26T03:29:31.659Z,101259.00
2018-09-26T03:31:36.183Z,101264.00
2018-09-26T03:33:40.702Z,101263.00
2018-09-26T03:35:45.174Z,101269.00
2018-09-26T03:37:49.687Z,101262.00
2018-09-26T03:39:54.199Z,101253.00
2018-09-26T03:41:58.686Z,101249.00
2018-09-26T03:44:03.165Z,101246.00
2018-09-26T03:46:07.763Z,101239.00
2018-09-26T03:48:12.238Z,101249.00
2018-09-26T03:50:16.783Z,101256.00
2018-09-26T03:52:21.256Z,101262.00
2018-09-26T03:54:25.764Z,101256.00
2018-09-26T03:56:30.239Z,101246.00
2018-09-26T03:58:35.830Z,101251.00
2018-09-26T04:00:40.399Z,101246.00
2018-09-26T04:02:46.091Z,101260.00
2018-09-26T04:04:50.754Z,101255.00
2018-09-26T04:06:56.073Z,101257.00
2018-09-26T04:09:00.589Z,101259.00
2018-09-26T04:11:05.691Z,101263.00
2018-09-26T04:13:10.262Z,101257.00
2018-09-26T04:15:14.699Z,101264.00
2018-09-26T04:17:19.172Z,101272.00
2018-09-26T04:19:23.730Z,101266.00
2018-09-26T04:21:28.239Z,101270.00
2018-09-26T04:23:32.719Z,101268.00
2018-09-26T04:25:37.233Z,101259.00
2018-09-26T04:27:41.820Z,101260.00
2018-09-26T04:29:46.408Z,101241.00
2018-09-26T04:31:53.662Z,101241.00
2018-09-26T04:33:59.215Z,101230.00
2018-09-26T04:36:03.667Z,101230.00
2018-09-26T04:38:08.763Z,101229.00
2018-09-26T04:40:13.345Z,101224.00
2018-09-26T04:42:18.942Z,101233.00
2018-09-26T04:44:23.377Z,101247.00
2018-09-26T04:46:27.887Z,101250.00
2018-09-26T04:48:32.365Z,101246.00
2018-09-26T04:50:36.983Z,101249.00
2018-09-26T04:52:41.515Z,101229.00
2018-09-26T04:54:46.022Z,101233.00
2018-09-26T04:56:51.002Z,101239.00
2018-09-26T04:58:55.520Z,101224.00
2018-09-26T05:01:00.010Z,101226.00
2018-09-26T05:03:04.581Z,101208.00
2018-09-26T05:05:09.163Z,101204.00
2018-09-26T05:07:13.641Z,101205.00
2018-09-26T05:09:19.227Z,101210.00
2018-09-26T05:11:23.842Z,101203.00
2018-09-26T05:13:28.330Z,101201.00
2018-09-26T05:15:32.832Z,101203.00
2018-09-26T05:17:37.255Z,101215.00
2018-09-26T05:19:41.763Z,101206.00
2018-09-26T05:21:46.226Z,101218.00
2018-09-26T05:23:50.764Z,101221.00
2018-09-26T05:25:55.743Z,101218.00
2018-09-26T05:28:00.639Z,101228.00
2018-09-26T05:30:05.874Z,101223.00
2018-09-26T05:32:10.330Z,101229.00
2018-09-26T05:34:14.750Z,101231.00
2018-09-26T05:36:19.235Z,101221.00
2018-09-26T05:38:23.712Z,101225.00
2018-09-26T05:40:28.867Z,101221.00
2018-09-26T05:42:33.339Z,101220.00
2018-09-26T05:44:37.830Z,101223.00
2018-09-26T05:46:42.333Z,101231.00
2018-09-26T05:48:46.789Z,101228.00
2018-09-26T05:50:51.307Z,101227.00
2018-09-26T05:52:55.872Z,101227.00
2018-09-26T05:55:01.024Z,101223.00
2018-09-26T05:57:05.526Z,101217.00
2018-09-26T05:59:10.074Z,101219.00
2018-09-26T06:01:14.583Z,101221.00
2018-09-26T06:03:19.253Z,101220.00
2018-09-26T06:05:23.821Z,101225.00
2018-09-26T06:07:28.338Z,101216.00
2018-09-26T06:09:32.902Z,101218.00
2018-09-26T06:11:37.466Z,101237.00
2018-09-26T06:13:42.006Z,101230.00
2018-09-26T06:15:46.519Z,101230.00
2018-09-26T06:17:51.099Z,101231.00
2018-09-26T06:19:55.594Z,101226.00
2018-09-26T06:22:01.207Z,101221.00
2018-09-26T06:24:05.967Z,101213.00
2018-09-26T06:26:10.608Z,101226.00
2018-09-26T06:28:15.157Z,101238.00
2018-09-26T06:30:19.628Z,101234.00
2018-09-26T06:32:24.152Z,101229.00
2018-09-26T06:34:29.083Z,101234.00
2018-09-26T06:36:33.578Z,101221.00
2018-09-26T06:38:38.179Z,101224.00
2018-09-26T06:40:42.750Z,101237.00
2018-09-26T06:42:47.235Z,101233.00
2018-09-26T06:44:51.703Z,101217.00
2018-09-26T06:46:56.232Z,101218.00
2018-09-26T06:49:01.868Z,101217.00
2018-09-26T06:51:06.750Z,101223.00
2018-09-26T06:53:11.252Z,101220.00
2018-09-26T06:55:15.821Z,101237.00
2018-09-26T06:57:20.286Z,101227.00
2018-09-26T06:59:24.746Z,101219.00
2018-09-26T07:01:32.145Z,101220.00
2018-09-26T07:03:36.664Z,101205.00
2018-09-26T07:05:42.007Z,101215.00
2018-09-26T07:07:47.223Z,101210.00
2018-09-26T07:09:51.726Z,101212.00
2018-09-26T07:11:56.175Z,101210.00
2018-09-26T07:14:00.759Z,101205.00
2018-09-26T07:16:05.866Z,101198.00
2018-09-26T07:18:10.498Z,101199.00
2018-09-26T07:20:15.189Z,101207.00
2018-09-26T07:22:19.801Z,101218.00
2018-09-26T07:24:24.275Z,101214.00
2018-09-26T07:26:28.785Z,101215.00
2018-09-26T07:28:33.311Z,101205.00
2018-09-26T07:30:37.782Z,101217.00
2018-09-26T07:32:42.329Z,101214.00
2018-09-26T07:34:46.879Z,101210.00
2018-09-26T07:36:51.729Z,101205.00
2018-09-26T07:38:56.224Z,101186.00
2018-09-26T07:41:00.733Z,101178.00
2018-09-26T07:43:05.235Z,101179.00
2018-09-26T07:45:09.769Z,101185.00
2018-09-26T07:47:14.354Z,101183.00
2018-09-26T07:49:18.843Z,101179.00
2018-09-26T07:51:23.306Z,101184.00
2018-09-26T07:53:27.806Z,101182.00
2018-09-26T07:55:32.275Z,101199.00
2018-09-26T07:57:37.101Z,101190.00
2018-09-26T07:59:41.618Z,101194.00
2018-09-26T08:01:46.503Z,101182.00
2018-09-26T08:03:51.007Z,101198.00
2018-09-26T08:05:55.566Z,101188.00
2018-09-26T08:08:00.031Z,101202.00
2018-09-26T08:10:05.271Z,101189.00
2018-09-26T08:12:10.026Z,101194.00
2018-09-26T08:14:14.587Z,101199.00
2018-09-26T08:16:19.122Z,101193.00
2018-09-26T08:18:23.693Z,101191.00
2018-09-26T08:20:28.106Z,101197.00
2018-09-26T08:22:32.709Z,101203.00
2018-09-26T08:24:37.194Z,101200.00
2018-09-26T08:26:41.737Z,101208.00
2018-09-26T08:28:46.243Z,101212.00
2018-09-26T08:30:50.743Z,101215.00
2018-09-26T08:32:55.417Z,101212.00
2018-09-26T08:34:59.915Z,101215.00
2018-09-26T08:37:05.415Z,101210.00
2018-09-26T08:39:12.322Z,101211.00
2018-09-26T08:41:16.815Z,101213.00
2018-09-26T08:43:21.389Z,101208.00
2018-09-26T08:45:25.834Z,101210.00
2018-09-26T08:47:30.381Z,101199.00
2018-09-26T08:49:34.910Z,101204.00
2018-09-26T08:51:39.403Z,101204.00
2018-09-26T08:53:43.960Z,101201.00
2018-09-26T08:55:48.422Z,101201.00
2018-09-26T08:57:53.095Z,101202.00
2018-09-26T08:59:57.701Z,101194.00
2018-09-26T09:02:02.175Z,101184.00
2018-09-26T09:04:06.738Z,101189.00
2018-09-26T09:06:11.272Z,101190.00
2018-09-26T09:08:15.742Z,101195.00
2018-09-26T09:10:20.843Z,101187.00
2018-09-26T09:12:27.074Z,101190.00
2018-09-26T09:14:35.775Z,101193.00
2018-09-26T09:16:40.207Z,101189.00
2018-09-26T09:18:44.839Z,101192.00
2018-09-26T09:20:50.018Z,101194.00
2018-09-26T09:22:54.587Z,101205.00
2018-09-26T09:25:00.540Z,101194.00
2018-09-26T09:27:05.043Z,101190.00
2018-09-26T09:29:10.059Z,101194.00
2018-09-26T09:31:14.622Z,101188.00
2018-09-26T09:33:20.770Z,101201.00
2018-09-26T09:35:25.507Z,101199.00
2018-09-26T09:37:32.220Z,101189.00
2018-09-26T09:39:36.707Z,101194.00
2018-09-26T09:41:41.261Z,101203.00
2018-09-26T09:43:47.287Z,101197.00
2018-09-26T09:45:51.956Z,101205.00
2018-09-26T09:47:56.885Z,101202.00
2018-09-26T09:50:01.503Z,101192.00
2018-09-26T09:52:07.719Z,101198.00
2018-09-26T09:54:12.518Z,101195.00
2018-09-26T09:56:17.071Z,101199.00
2018-09-26T09:58:23.404Z,101202.00
2018-09-26T10:00:34.603Z,101200.00
2018-09-26T10:02:39.243Z,101201.00
2018-09-26T10:04:43.727Z,101202.00
2018-09-26T10:06:50.102Z,101208.00
2018-09-26T10:08:54.840Z,101207.00
2018-09-26T10:11:00.675Z,101193.00
2018-09-26T10:13:06.013Z,101194.00
2018-09-26T10:15:10.842Z,101190.00
2018-09-26T10:17:15.624Z,101193.00
2018-09-26T10:19:20.218Z,101186.00
2018-09-26T10:21:24.726Z,101193.00
2018-09-26T10:23:29.226Z,101190.00
2018-09-26T10:25:34.601Z,101201.00
2018-09-26T10:27:39.429Z,101193.00
2018-09-26T10:29:43.914Z,101203.00
2018-09-26T10:31:48.392Z,101209.00
2018-09-26T10:33:52.996Z,101197.00
2018-09-26T10:35:58.085Z,101193.00
2018-09-26T10:38:02.595Z,101200.00
2018-09-26T10:40:08.444Z,101197.00
2018-09-26T10:42:12.955Z,101188.00
2018-09-26T10:44:17.495Z,101186.00
2018-09-26T10:46:22.042Z,101195.00
2018-09-26T10:48:26.873Z,101188.00
2018-09-26T10:50:31.379Z,101172.00
2018-09-26T10:52:35.936Z,101177.00
2018-09-26T10:54:40.449Z,101183.00
2018-09-26T10:56:44.944Z,101177.00
2018-09-26T10:58:49.451Z,101180.00
2018-09-26T11:00:54.090Z,101182.00
2018-09-26T11:02:58.579Z,101174.00
2018-09-26T11:05:03.205Z,101165.00
2018-09-26T11:07:08.647Z,101171.00
2018-09-26T11:09:13.172Z,101164.00
2018-09-26T11:11:17.755Z,101164.00
2018-09-26T11:13:22.342Z,101159.00
2018-09-26T11:15:26.910Z,101158.00
2018-09-26T11:17:31.455Z,101159.00
2018-09-26T11:19:35.998Z,101158.00
2018-09-26T11:21:40.558Z,101156.00
2018-09-26T11:23:45.059Z,101151.00
2018-09-26T11:25:49.587Z,101150.00
2018-09-26T11:27:54.068Z,101141.00
2018-09-26T11:29:58.685Z,101150.00
2018-09-26T11:32:03.444Z,101143.00
2018-09-26T11:34:08.687Z,101149.00
2018-09-26T11:36:13.199Z,101150.00
2018-09-26T11:38:17.868Z,101143.00
2018-09-26T11:40:22.544Z,101145.00
2018-09-26T11:42:27.014Z,101141.00
2018-09-26T11:44:31.608Z,101146.00
2018-09-26T11:46:36.443Z,101141.00
2018-09-26T11:48:41.023Z,101139.00
2018-09-26T11:50:45.512Z,101134.00
2018-09-26T11:52:50.019Z,101137.00
2018-09-26T11:54:54.543Z,101136.00
2018-09-26T11:56:59.047Z,101130.00
2018-09-26T11:59:03.599Z,101124.00
2018-09-26T12:01:08.915Z,101123.00
2018-09-26T12:03:13.492Z,101122.00
2018-09-26T12:05:17.956Z,101122.00
2018-09-26T12:07:22.542Z,101122.00
2018-09-26T12:09:27.100Z,101113.00
2018-09-26T12:11:31.690Z,101114.00
2018-09-26T12:13:36.255Z,101104.00
2018-09-26T12:15:40.779Z,101107.00
2018-09-26T12:17:46.416Z,101105.00
2018-09-26T12:19:51.696Z,101108.00
2018-09-26T12:21:56.318Z,101104.00
2018-09-26T12:24:00.780Z,101109.00
2018-09-26T12:26:05.311Z,101108.00
2018-09-26T12:28:09.884Z,101102.00
2018-09-26T12:30:14.412Z,101100.00
2018-09-26T12:32:18.863Z,101102.00
2018-09-26T12:34:23.420Z,101089.00
2018-09-26T12:36:29.624Z,101077.00
2018-09-26T12:38:34.059Z,101084.00
2018-09-26T12:40:38.607Z,101090.00
2018-09-26T12:42:44.308Z,101079.00
2018-09-26T12:44:48.859Z,101089.00
2018-09-26T12:46:53.804Z,101082.00
2018-09-26T12:48:58.371Z,101080.00
2018-09-26T12:51:02.891Z,101079.00
2018-09-26T12:53:07.609Z,101069.00
2018-09-26T12:55:12.266Z,101068.00
2018-09-26T12:57:16.887Z,101074.00
2018-09-26T12:59:21.411Z,101063.00
2018-09-26T13:01:25.943Z,101063.00
2018-09-26T13:03:30.432Z,101057.00
2018-09-26T13:05:35.012Z,101058.00
2018-09-26T13:07:39.486Z,101050.00
2018-09-26T13:09:43.966Z,101051.00
2018-09-26T13:11:48.524Z,101045.00
2018-09-26T13:13:53.002Z,101048.00
2018-09-26T13:15:57.522Z,101042.00
2018-09-26T13:18:03.147Z,101046.00
2018-09-26T13:20:08.254Z,101033.00
2018-09-26T13:22:12.900Z,101030.00
2018-09-26T13:24:17.368Z,101032.00
2018-09-26T13:26:21.893Z,101040.00
2018-09-26T13:28:26.841Z,101039.00
2018-09-26T13:30:31.341Z,101035.00
2018-09-26T13:32:36.925Z,101040.00
2018-09-26T13:34:42.482Z,101032.00
2018-09-26T13:36:48.001Z,101034.00
2018-09-26T13:38:52.899Z,101038.00
2018-09-26T13:40:58.593Z,101032.00
2018-09-26T13:43:03.268Z,101027.00
2018-09-26T13:45:07.867Z,101020.00
2018-09-26T13:47:12.418Z,101026.00
2018-09-26T13:49:16.957Z,101036.00
2018-09-26T13:51:21.498Z,101019.00
2018-09-26T13:53:26.124Z,101032.00
2018-09-26T13:55:30.657Z,101028.00
2018-09-26T13:57:35.219Z,101024.00
2018-09-26T13:59:39.779Z,101020.00
2018-09-26T14:01:45.509Z,101008.00
2018-09-26T14:03:50.087Z,101009.00
2018-09-26T14:05:54.942Z,101015.00
2018-09-26T14:07:59.418Z,101010.00
2018-09-26T14:10:03.982Z,101021.00
2018-09-26T14:12:08.675Z,101015.00
2018-09-26T14:14:13.263Z,101000.00
2018-09-26T14:16:17.778Z,101005.00
2018-09-26T14:18:22.271Z,101001.00
2018-09-26T14:20:49.045Z,101004.00
2018-09-26T14:22:54.532Z,100991.00
2018-09-26T14:25:01.517Z,100993.00
2018-09-26T14:27:08.159Z,100988.00
2018-09-26T14:29:14.130Z,100994.00
2018-09-26T14:31:18.827Z,100997.00
2018-09-26T14:33:23.651Z,100988.00
2018-09-26T14:35:29.158Z,100985.00
2018-09-26T14:37:33.902Z,100980.00
2018-09-26T14:39:39.386Z,100976.00
2018-09-26T14:41:44.031Z,100975.00
2018-09-26T14:43:48.694Z,100977.00
2018-09-26T14:45:54.605Z,100973.00
2018-09-26T14:47:59.196Z,100971.00
2018-09-26T14:50:03.902Z,100967.00
2018-09-26T14:52:08.630Z,100976.00
2018-09-26T14:54:14.514Z,100963.00
2018-09-26T14:56:19.376Z,100969.00
2018-09-26T14:58:25.175Z,100968.00
2018-09-26T15:00:32.202Z,100964.00
2018-09-26T15:02:36.856Z,100971.00
2018-09-26T15:04:42.303Z,100973.00
2018-09-26T15:06:46.918Z,100971.00
2018-09-26T15:08:52.186Z,100965.00
2018-09-26T15:10:57.282Z,100966.00
2018-09-26T15:13:02.661Z,100960.00
2018-09-26T15:15:07.519Z,100962.00
2018-09-26T15:17:12.164Z,100968.00
2018-09-26T15:19:17.623Z,100962.00
2018-09-26T15:21:23.538Z,100963.00
2018-09-26T15:23:29.931Z,100955.00
2018-09-26T15:25:35.902Z,100949.00
2018-09-26T15:27:42.139Z,100952.00
2018-09-26T15:29:48.809Z,100951.00
2018-09-26T15:31:54.219Z,100954.00
2018-09-26T15:33:59.760Z,100955.00
2018-09-26T15:36:05.942Z,100954.00
2018-09-26T15:38:12.921Z,100956.00
2018-09-26T15:40:18.866Z,100951.00
2018-09-26T15:42:24.879Z,100949.00
2018-09-26T15:44:32.161Z,100950.00
2018-09-26T15:46:39.305Z,100953.00
2018-09-26T15:48:45.063Z,100954.00
2018-09-26T15:50:49.674Z,100954.00
2018-09-26T15:52:54.338Z,100957.00
2018-09-26T15:54:59.195Z,100956.00
2018-09-26T15:57:03.901Z,100951.00
2018-09-26T15:59:10.567Z,100958.00
2018-09-26T16:01:17.079Z,100955.00
2018-09-26T16:03:21.647Z,100962.00
2018-09-26T16:05:26.148Z,100956.00
2018-09-26T16:07:30.688Z,100943.00
2018-09-26T16:09:35.184Z,100959.00
2018-09-26T16:11:39.717Z,100963.00
2018-09-26T16:13:44.503Z,100964.00
2018-09-26T16:15:48.919Z,100963.00
2018-09-26T16:17:53.758Z,100959.00
2018-09-26T16:19:58.216Z,100959.00
2018-09-26T16:22:05.006Z,100964.00
2018-09-26T16:24:09.602Z,100974.00
2018-09-26T16:26:14.342Z,100966.00
2018-09-26T16:28:18.916Z,100973.00
2018-09-26T16:30:23.508Z,100962.00
2018-09-26T16:32:27.924Z,100970.00
2018-09-26T16:34:32.426Z,100971.00
2018-09-26T16:36:37.587Z,100966.00
2018-09-26T16:38:43.319Z,100976.00
2018-09-26T16:40:47.783Z,100963.00
2018-09-26T16:42:52.331Z,100968.00
2018-09-26T16:44:56.776Z,100959.00
2018-09-26T16:47:01.279Z,100966.00
2018-09-26T16:49:06.904Z,100964.00
2018-09-26T16:51:11.506Z,100960.00
2018-09-26T16:53:16.040Z,100968.00
2018-09-26T16:55:20.575Z,100961.00
2018-09-26T16:57:25.088Z,100957.00
2018-09-26T16:59:29.725Z,100955.00
2018-09-26T17:01:34.283Z,100964.00
2018-09-26T17:03:38.842Z,100958.00
2018-09-26T17:05:44.038Z,100965.00
2018-09-26T17:07:49.693Z,100957.00
2018-09-26T17:09:54.138Z,100964.00
2018-09-26T17:11:58.625Z,100959.00
2018-09-26T17:14:03.167Z,100960.00
2018-09-26T17:16:07.861Z,100965.00
2018-09-26T17:18:12.393Z,100968.00
2018-09-26T17:20:17.032Z,100981.00
2018-09-26T17:22:21.646Z,100967.00
2018-09-26T17:24:26.131Z,100969.00
2018-09-26T17:26:30.630Z,100969.00
2018-09-26T17:28:35.208Z,100964.00
2018-09-26T17:30:39.723Z,100975.00
2018-09-26T17:32:44.219Z,100970.00
2018-09-26T17:34:49.900Z,100975.00
2018-09-26T17:36:54.383Z,100976.00
2018-09-26T17:38:58.897Z,100974.00
2018-09-26T17:41:03.354Z,100966.00
2018-09-26T17:43:08.210Z,100969.00
2018-09-26T17:45:12.796Z,100969.00
2018-09-26T17:47:17.931Z,100971.00
2018-09-26T17:49:22.516Z,100974.00
2018-09-26T17:51:26.913Z,100978.00
2018-09-26T17:53:31.621Z,100973.00
2018-09-26T17:55:36.786Z,100976.00
2018-09-26T17:57:42.266Z,100969.00
2018-09-26T17:59:46.723Z,100970.00
2018-09-26T18:01:51.288Z,100987.00
2018-09-26T18:03:56.754Z,100974.00
2018-09-26T18:06:02.273Z,100972.00
2018-09-26T18:08:07.668Z,100978.00
2018-09-26T18:10:13.663Z,100975.00
2018-09-26T18:12:18.800Z,100974.00
2018-09-26T18:14:23.354Z,100981.00
2018-09-26T18:16:27.877Z,100983.00
2018-09-26T18:18:32.410Z,100978.00
2018-09-26T18:20:36.963Z,100985.00
2018-09-26T18:22:41.463Z,100986.00
2018-09-26T18:24:45.988Z,100983.00
2018-09-26T18:26:50.443Z,100985.00
2018-09-26T18:28:55.598Z,100980.00
2018-09-26T18:31:00.135Z,100982.00
2018-09-26T18:33:04.707Z,100980.00
2018-09-26T18:35:09.135Z,100978.00
2018-09-26T18:37:14.190Z,100967.00
2018-09-26T18:39:18.772Z,100962.00
2018-09-26T18:41:24.046Z,100981.00
2018-09-26T18:43:29.202Z,100985.00
2018-09-26T18:45:35.117Z,100983.00
2018-09-26T18:47:39.686Z,100989.00
2018-09-26T18:49:44.199Z,100983.00
2018-09-26T18:51:48.735Z,100993.00
2018-09-26T18:53:53.274Z,100986.00
2018-09-26T18:55:57.746Z,100992.00
2018-09-26T18:58:02.475Z,100995.00
2018-09-26T19:00:06.980Z,101005.00
2018-09-26T19:02:11.466Z,101009.00
2018-09-26T19:04:15.953Z,101010.00
2018-09-26T19:06:20.660Z,101008.00
2018-09-26T19:08:25.147Z,101016.00
2018-09-26T19:10:29.635Z,101012.00
2018-09-26T19:12:34.196Z,101014.00
2018-09-26T19:14:38.666Z,101019.00
2018-09-26T19:16:43.157Z,101015.00
2018-09-26T19:18:47.726Z,101006.00
2018-09-26T19:20:52.360Z,101010.00
2018-09-26T19:22:56.884Z,101007.00
2018-09-26T19:25:01.375Z,101005.00
2018-09-26T19:27:05.914Z,101008.00
2018-09-26T19:29:10.574Z,101015.00
2018-09-26T19:31:15.761Z,101010.00
2018-09-26T19:33:20.339Z,101008.00
2018-09-26T19:35:25.107Z,101015.00
2018-09-26T19:37:29.619Z,101020.00
2018-09-26T19:39:34.122Z,101016.00
2018-09-26T19:41:38.813Z,101015.00
2018-09-26T19:43:43.401Z,101012.00
2018-09-26T19:45:47.898Z,101015.00
2018-09-26T19:47:52.533Z,101014.00
2018-09-26T19:49:57.022Z,101020.00
2018-09-26T19:52:01.569Z,101013.00
2018-09-26T19:54:06.110Z,101018.00
2018-09-26T19:56:10.720Z,101010.00
2018-09-26T19:58:16.135Z,101004.00
2018-09-26T20:00:20.595Z,101018.00
2018-09-26T20:02:25.092Z,101025.00
2018-09-26T20:04:29.608Z,101020.00
2018-09-26T20:06:34.132Z,101022.00
2018-09-26T20:08:38.835Z,101020.00
2018-09-26T20:10:43.342Z,101024.00
2018-09-26T20:12:47.843Z,101020.00
2018-09-26T20:14:52.351Z,101016.00
2018-09-26T20:16:56.868Z,101031.00
2018-09-26T20:19:01.404Z,101025.00
2018-09-26T20:21:05.859Z,101031.00
2018-09-26T20:23:10.453Z,101026.00
2018-09-26T20:25:14.925Z,101032.00
2018-09-26T20:27:19.540Z,101032.00
2018-09-26T20:29:24.142Z,101029.00
2018-09-26T20:31:28.491Z,101029.00
2018-09-26T20:33:32.981Z,101033.00
2018-09-26T20:35:37.544Z,101034.00
2018-09-26T20:37:41.979Z,101036.00
2018-09-26T20:39:46.465Z,101034.00
2018-09-26T20:41:50.942Z,101028.00
2018-09-26T20:43:55.435Z,101030.00
2018-09-26T20:45:59.936Z,101029.00
2018-09-26T20:48:05.135Z,101036.00
2018-09-26T20:50:09.674Z,101040.00
2018-09-26T20:52:14.192Z,101028.00
2018-09-26T20:54:18.707Z,101021.00
2018-09-26T20:56:23.203Z,101035.00
2018-09-26T20:58:27.742Z,101031.00
2018-09-26T21:00:32.339Z,101020.00
2018-09-26T21:02:37.026Z,101029.00
2018-09-26T21:04:41.566Z,101025.00
2018-09-26T21:06:46.040Z,101030.00
2018-09-26T21:08:50.535Z,101030.00
2018-09-26T21:10:55.194Z,101030.00
2018-09-26T21:12:59.679Z,101038.00
2018-09-26T21:15:05.177Z,101036.00
2018-09-26T21:17:09.675Z,101041.00
2018-09-26T21:19:14.157Z,101032.00
2018-09-26T21:21:18.682Z,101023.00
2018-09-26T21:23:23.211Z,101033.00
2018-09-26T21:25:28.766Z,101027.00
2018-09-26T21:27:33.259Z,101034.00
2018-09-26T21:29:37.935Z,101027.00
2018-09-26T21:31:42.704Z,101025.00
2018-09-26T21:33:47.317Z,101023.00
2018-09-26T21:35:51.855Z,101010.00
2018-09-26T21:37:57.267Z,101012.00
2018-09-26T21:40:01.788Z,101020.00
2018-09-26T21:42:06.281Z,101022.00
2018-09-26T21:44:10.775Z,101022.00
2018-09-26T21:46:15.372Z,101021.00
2018-09-26T21:48:19.886Z,101033.00
2018-09-26T21:50:24.454Z,101027.00
2018-09-26T21:52:28.911Z,101028.00
2018-09-26T21:54:33.531Z,101029.00
2018-09-26T21:56:38.247Z,101021.00
2018-09-26T21:58:42.739Z,101032.00
2018-09-26T22:00:52.624Z,101028.00
2018-09-26T22:02:57.447Z,101029.00
2018-09-26T22:05:01.975Z,101030.00
2018-09-26T22:07:06.781Z,101030.00
2018-09-26T22:09:11.269Z,101029.00
2018-09-26T22:11:15.875Z,101026.00
2018-09-26T22:13:20.544Z,101034.00
2018-09-26T22:15:25.165Z,101026.00
2018-09-26T22:17:29.659Z,101027.00
2018-09-26T22:19:34.207Z,101014.00
2018-09-26T22:21:38.698Z,101022.00
2018-09-26T22:23:43.219Z,101019.00
2018-09-26T22:25:47.779Z,101034.00
2018-09-26T22:27:52.248Z,101026.00
2018-09-26T22:29:57.583Z,101031.00
2018-09-26T22:32:02.095Z,101032.00
2018-09-26T22:34:07.186Z,101039.00
2018-09-26T22:36:11.686Z,101020.00
2018-09-26T22:38:16.212Z,101034.00
2018-09-26T22:40:20.663Z,101028.00
2018-09-26T22:42:25.147Z,101028.00
2018-09-26T22:44:29.637Z,101029.00
2018-09-26T22:46:34.215Z,101026.00
2018-09-26T22:48:38.687Z,101022.00
2018-09-26T22:50:43.143Z,101017.00
2018-09-26T22:52:48.214Z,101027.00
2018-09-26T22:54:52.659Z,101021.00
2018-09-26T22:56:58.765Z,101006.00
2018-09-26T22:59:03.329Z,101005.00
2018-09-26T23:01:07.855Z,101009.00
2018-09-26T23:03:12.355Z,101010.00
2018-09-26T23:05:17.950Z,101008.00
2018-09-26T23:07:22.466Z,100999.00
2018-09-26T23:09:26.942Z,101000.00
2018-09-26T23:11:31.535Z,101003.00
2018-09-26T23:13:36.257Z,101012.00
2018-09-26T23:15:40.742Z,101008.00
2018-09-26T23:17:45.255Z,100996.00
2018-09-26T23:19:49.831Z,100986.00
2018-09-26T23:21:54.312Z,100993.00
2018-09-26T23:23:58.802Z,100999.00
2018-09-26T23:26:03.278Z,100992.00
2018-09-26T23:28:07.748Z,100998.00
2018-09-26T23:30:12.273Z,100987.00
2018-09-26T23:32:16.759Z,100995.00
2018-09-26T23:34:21.251Z,100986.00
2018-09-26T23:36:25.756Z,100990.00
2018-09-26T23:38:30.244Z,100977.00
2018-09-26T23:40:34.746Z,100975.00
2018-09-26T23:42:39.242Z,100976.00
2018-09-26T23:44:43.898Z,100975.00